Time;durP1;ratioP1;P1;durP2;ratioP2;P2;SDS_P1;SDS_P2;PMS_P1;PMS_P2;Temp;Humidity;BMP_temperature;BMP_pressure;BME280_temperature;BME280_humidity;BME280_pressure;Samples;Min_cycle;Max_cycle;Signal;HPM_P1;HPM_P2
2022/09/22 04:02:38;;;;;;;1.67;1.67;;;7.40;99.90;;;;;;4967876;28;20308;-70
2022/09/22 04:05:06;;;;;;;3.20;2.13;;;7.40;99.90;;;;;;4973301;28;20268;-70
2022/09/22 04:07:33;;;;;;;2.10;2.00;;;7.40;99.90;;;;;;4967049;28;20229;-67
2022/09/22 04:10:01;;;;;;;1.38;1.38;;;7.30;99.90;;;;;;4976925;28;20201;-70
2022/09/22 04:12:27;;;;;;;4.97;2.65;;;7.30;99.90;;;;;;4964037;28;20665;-69
2022/09/22 04:14:54;;;;;;;3.55;1.60;;;7.30;99.90;;;;;;4972531;28;20215;-70
2022/09/22 04:17:21;;;;;;;2.10;2.00;;;7.30;99.90;;;;;;4967780;28;20202;-68
2022/09/22 04:19:49;;;;;;;1.45;1.40;;;7.30;99.90;;;;;;4968614;28;20212;-70
2022/09/22 04:22:16;;;;;;;1.80;1.80;;;7.20;99.90;;;;;;4963251;28;20320;-70
2022/09/22 04:24:42;;;;;;;2.85;2.65;;;7.20;99.90;;;;;;4965916;28;20691;-71
2022/09/22 04:27:09;;;;;;;1.92;1.83;;;7.30;99.90;;;;;;4970845;28;20366;-70
2022/09/22 04:29:36;;;;;;;1.88;1.85;;;7.20;99.90;;;;;;4963259;28;20214;-68
2022/09/22 04:32:03;;;;;;;1.60;1.50;;;7.20;99.90;;;;;;4962955;28;20229;-71
2022/09/22 04:34:30;;;;;;;3.35;3.20;;;7.20;99.90;;;;;;4962588;28;20203;-70
2022/09/22 04:36:58;;;;;;;2.60;2.15;;;7.20;99.90;;;;;;4972150;28;20214;-70
2022/09/22 04:39:27;;;;;;;2.90;2.38;;;7.20;99.90;;;;;;4964490;28;20210;-69
2022/09/22 04:41:54;;;;;;;2.70;2.55;;;7.20;99.90;;;;;;4961482;28;20235;-71
2022/09/22 04:44:21;;;;;;;2.45;2.33;;;7.20;99.90;;;;;;4969940;28;20208;-72
2022/09/22 04:46:49;;;;;;;2.33;2.17;;;7.10;99.90;;;;;;4969770;28;20216;-71
2022/09/22 04:49:15;;;;;;;1.50;1.50;;;7.10;99.90;;;;;;4970584;28;20238;-71
2022/09/22 04:51:42;;;;;;;1.98;1.88;;;7.10;99.90;;;;;;4956379;28;20309;-71
2022/09/22 04:54:10;;;;;;;2.28;2.08;;;7.10;99.90;;;;;;4964070;28;20218;-68
2022/09/22 04:56:37;;;;;;;2.63;2.42;;;7.10;99.90;;;;;;4968776;28;20225;-71
2022/09/22 04:59:04;;;;;;;2.45;2.35;;;7.10;99.90;;;;;;4965841;28;20394;-70
2022/09/22 05:01:30;;;;;;;1.80;1.70;;;7.10;99.90;;;;;;4965781;28;20236;-70
2022/09/22 05:03:57;;;;;;;2.13;2.03;;;7.10;99.90;;;;;;4964617;28;20206;-71
2022/09/22 05:06:24;;;;;;;1.80;1.70;;;7.10;99.90;;;;;;4962212;28;20206;-70
2022/09/22 05:08:50;;;;;;;1.70;1.60;;;7.10;99.90;;;;;;4958133;28;20235;-70
2022/09/22 05:11:22;;;;;;;2.45;1.75;;;7.10;99.90;;;;;;4958343;28;20256;-70
2022/09/22 05:13:49;;;;;;;1.42;1.42;;;7.10;99.90;;;;;;4967431;28;20201;-70
2022/09/22 05:16:16;;;;;;;2.97;2.78;;;7.10;99.90;;;;;;4965845;28;20210;-70
2022/09/22 05:18:43;;;;;;;2.15;1.98;;;7.10;99.90;;;;;;4968651;28;20210;-69
2022/09/22 05:21:10;;;;;;;2.35;2.28;;;7.10;99.90;;;;;;4971249;28;20607;-70
2022/09/22 05:23:38;;;;;;;2.25;2.10;;;7.10;99.90;;;;;;4963260;28;20225;-69
2022/09/22 05:26:05;;;;;;;2.17;2.08;;;7.10;99.90;;;;;;4962597;28;20210;-69
2022/09/22 05:28:33;;;;;;;2.83;2.75;;;7.10;99.90;;;;;;4968475;28;20229;-70
2022/09/22 05:31:00;;;;;;;1.98;1.90;;;7.10;99.90;;;;;;4967899;28;20236;-70
2022/09/22 05:33:27;;;;;;;1.50;1.50;;;7.10;99.90;;;;;;4961987;28;20611;-70
2022/09/22 05:35:54;;;;;;;3.25;3.10;;;7.10;99.90;;;;;;4958260;28;20213;-69
2022/09/22 05:38:20;;;;;;;2.63;2.42;;;7.10;99.90;;;;;;4963063;28;20638;-72
2022/09/22 05:40:47;;;;;;;2.15;2.08;;;7.10;99.90;;;;;;4968945;28;20233;-71
2022/09/22 05:43:14;;;;;;;2.47;2.28;;;7.20;99.90;;;;;;4968610;28;20549;-71
2022/09/22 05:45:43;;;;;;;2.85;2.67;;;7.20;99.90;;;;;;4957682;28;20669;-71
2022/09/22 05:48:10;;;;;;;1.23;1.23;;;7.20;99.90;;;;;;4964426;28;20254;-71
2022/09/22 05:50:37;;;;;;;2.60;2.50;;;7.20;99.90;;;;;;4959764;28;20891;-71
2022/09/22 05:53:05;;;;;;;2.45;2.30;;;7.20;99.90;;;;;;4967855;28;20664;-71
2022/09/22 05:55:32;;;;;;;2.05;2.00;;;7.20;99.90;;;;;;4961597;28;20206;-71
2022/09/22 05:58:00;;;;;;;9.07;2.80;;;7.30;99.90;;;;;;4961694;28;20218;-71
2022/09/22 06:00:27;;;;;;;2.88;2.67;;;7.30;99.90;;;;;;4967569;28;20216;-69
2022/09/22 06:02:55;;;;;;;1.90;1.90;;;7.30;99.90;;;;;;4966248;28;20214;-69
2022/09/22 06:05:22;;;;;;;2.70;2.50;;;7.30;99.90;;;;;;4960164;28;20284;-71
2022/09/22 06:07:56;;;;;;;3.05;2.45;;;7.30;99.90;;;;;;4961971;28;20581;-70
2022/09/22 06:10:23;;;;;;;2.15;1.95;;;7.30;99.90;;;;;;4963986;28;20209;-70
2022/09/22 06:12:50;;;;;;;2.63;2.45;;;7.40;99.90;;;;;;4959688;28;20208;-69
2022/09/22 06:15:17;;;;;;;2.22;2.22;;;7.40;99.90;;;;;;4961155;28;20535;-69
2022/09/22 06:17:44;;;;;;;4.18;2.25;;;7.40;99.90;;;;;;4966049;28;20206;-71
2022/09/22 06:20:12;;;;;;;2.45;2.25;;;7.40;99.90;;;;;;4968967;28;20294;-72
2022/09/22 06:22:38;;;;;;;3.30;3.10;;;7.50;99.90;;;;;;4957681;28;20233;-70
2022/09/22 06:25:07;;;;;;;2.08;1.98;;;7.50;99.90;;;;;;4966327;28;20213;-70
2022/09/22 06:27:34;;;;;;;1.70;1.70;;;7.50;99.90;;;;;;4969697;28;20244;-70
2022/09/22 06:30:01;;;;;;;2.80;2.70;;;7.60;99.90;;;;;;4962664;28;20233;-70
2022/09/22 06:32:28;;;;;;;2.25;2.17;;;7.60;99.90;;;;;;4961678;28;20237;-71
2022/09/22 06:34:56;;;;;;;3.40;3.22;;;7.70;99.90;;;;;;4967441;28;20639;-71
2022/09/22 06:37:24;;;;;;;2.53;2.45;;;7.70;99.90;;;;;;4971157;28;20217;-71
2022/09/22 06:39:51;;;;;;;3.45;3.17;;;7.80;99.90;;;;;;4973982;28;20211;-71
2022/09/22 06:42:17;;;;;;;2.25;2.15;;;7.80;99.90;;;;;;4971059;28;20222;-71
2022/09/22 06:44:44;;;;;;;2.97;2.78;;;7.90;99.90;;;;;;4973237;28;20214;-72
2022/09/22 06:47:11;;;;;;;8.57;3.63;;;8.00;99.90;;;;;;4970681;28;20226;-70
2022/09/22 06:49:38;;;;;;;2.95;2.75;;;8.00;99.90;;;;;;4970086;28;20219;-71
2022/09/22 06:52:09;;;;;;;3.25;3.00;;;8.10;99.90;;;;;;4968019;28;20233;-71
2022/09/22 06:54:38;;;;;;;3.28;2.95;;;8.20;99.90;;;;;;4978902;28;20615;-71
2022/09/22 06:57:05;;;;;;;3.67;3.47;;;8.20;99.90;;;;;;4973173;28;20217;-71
2022/09/22 06:59:34;;;;;;;3.38;3.08;;;8.30;99.90;;;;;;4979234;28;20219;-69
2022/09/22 07:02:06;;;;;;;2.67;2.58;;;8.40;99.90;;;;;;4975385;28;20246;-69
2022/09/22 07:04:33;;;;;;;2.97;2.70;;;8.40;99.90;;;;;;4963468;28;20290;-70
2022/09/22 07:07:02;;;;;;;3.45;3.17;;;8.50;99.90;;;;;;4968108;28;20295;-70
2022/09/22 07:09:29;;;;;;;3.80;3.63;;;8.60;99.90;;;;;;4965620;28;20226;-69
2022/09/22 07:11:59;;;;;;;3.13;3.00;;;8.60;99.90;;;;;;4967736;28;20246;-69
2022/09/22 07:14:25;;;;;;;2.25;2.15;;;8.70;99.90;;;;;;4971045;28;20211;-69
2022/09/22 07:16:54;;;;;;;2.25;2.15;;;8.80;99.90;;;;;;4968978;28;20203;-69
2022/09/22 07:19:20;;;;;;;2.67;2.58;;;8.90;99.90;;;;;;4961863;28;20266;-69
2022/09/22 07:21:47;;;;;;;3.20;3.00;;;8.90;99.90;;;;;;4958777;28;20234;-70
2022/09/22 07:24:14;;;;;;;3.85;3.55;;;9.00;99.90;;;;;;4969019;28;20663;-69
2022/09/22 07:26:41;;;;;;;5.65;3.22;;;9.10;99.90;;;;;;4971224;28;20226;-69
2022/09/22 07:29:12;;;;;;;2.70;2.53;;;9.10;99.90;;;;;;4968508;28;20234;-69
2022/09/22 07:31:39;;;;;;;4.22;2.65;;;9.20;99.90;;;;;;4957521;28;20227;-68
2022/09/22 07:34:06;;;;;;;2.90;2.80;;;9.30;99.90;;;;;;4962925;28;20210;-71
2022/09/22 07:36:35;;;;;;;2.58;2.08;;;9.40;99.90;;;;;;4964940;28;20212;-70
2022/09/22 07:39:05;;;;;;;2.15;2.15;;;9.50;99.90;;;;;;4965731;28;20204;-70
2022/09/22 07:41:40;;;;;;;2.10;2.08;;;9.60;99.90;;;;;;4959201;28;20228;-70
2022/09/22 07:46:49;;;;;;;2.40;2.20;;;9.70;99.90;;;;;;4959818;28;20680;-68
2022/09/22 07:49:18;;;;;;;3.45;3.22;;;9.80;99.90;;;;;;4954553;28;20219;-69
2022/09/22 07:51:45;;;;;;;2.72;2.63;;;9.90;99.90;;;;;;4968576;28;20250;-69
2022/09/22 07:54:12;;;;;;;2.88;2.65;;;9.90;99.90;;;;;;4966364;28;20603;-69
2022/09/22 07:56:40;;;;;;;2.05;1.95;;;10.00;99.90;;;;;;4972911;28;20678;-69
2022/09/22 07:59:09;;;;;;;2.55;2.03;;;10.20;99.90;;;;;;4968870;28;20232;-71
2022/09/22 08:01:38;;;;;;;0.63;0.63;;;10.40;99.90;;;;;;4965208;28;20296;-69
2022/09/22 08:04:06;;;;;;;1.90;1.90;;;10.50;99.90;;;;;;4962442;28;20217;-69
2022/09/22 08:06:34;;;;;;;2.10;2.00;;;10.60;99.90;;;;;;4958911;28;20693;-70
2022/09/22 08:09:05;;;;;;;1.88;1.88;;;10.70;99.90;;;;;;4959662;28;20640;-70
2022/09/22 08:11:32;;;;;;;2.40;2.30;;;10.70;99.90;;;;;;4964987;28;20242;-69
2022/09/22 08:14:00;;;;;;;2.33;2.22;;;10.80;99.90;;;;;;4963037;28;20215;-69
2022/09/22 08:16:30;;;;;;;2.40;2.30;;;10.90;99.90;;;;;;4964505;28;20277;-69
2022/09/22 08:18:57;;;;;;;2.28;1.50;;;11.10;99.90;;;;;;4970031;28;20238;-69
2022/09/22 08:21:29;;;;;;;2.13;2.03;;;11.30;99.90;;;;;;4966538;28;20247;-69
2022/09/22 08:23:56;;;;;;;1.83;1.83;;;11.40;99.90;;;;;;4968019;28;20224;-69
2022/09/22 08:26:23;;;;;;;1.73;1.73;;;11.50;99.90;;;;;;4964534;28;20648;-69
2022/09/22 08:28:52;;;;;;;2.08;2.08;;;11.60;99.90;;;;;;4967365;28;20231;-69
2022/09/22 08:31:19;;;;;;;1.70;1.60;;;11.70;99.90;;;;;;4966193;28;20227;-70
2022/09/22 08:33:47;;;;;;;2.25;2.25;;;11.90;99.90;;;;;;4964887;28;20489;-69
2022/09/22 08:36:14;;;;;;;0.85;0.85;;;11.90;99.90;;;;;;4969930;28;20210;-71
2022/09/22 08:38:47;;;;;;;1.73;1.73;;;12.10;99.90;;;;;;4966775;28;20205;-72
2022/09/22 08:41:20;;;;;;;2.05;2.05;;;12.20;99.90;;;;;;4973234;28;20679;-71
2022/09/22 08:43:51;;;;;;;1.10;1.10;;;12.30;99.90;;;;;;4963455;28;20210;-71
2022/09/22 08:46:18;;;;;;;1.55;1.50;;;12.30;99.90;;;;;;4970917;28;20641;-71
2022/09/22 08:51:53;;;;;;;2.20;1.10;;;12.40;99.90;;;;;;4964801;28;20234;-70
2022/09/22 08:54:25;;;;;;;1.50;1.50;;;12.60;99.90;;;;;;4968265;28;20469;-70
2022/09/22 08:57:01;;;;;;;1.70;1.70;;;12.80;99.90;;;;;;4963624;28;20851;-69
2022/09/22 08:59:32;;;;;;;1.53;1.17;;;12.90;99.90;;;;;;4968847;28;20950;-69
2022/09/22 09:02:18;;;;;;;0.80;0.80;;;12.90;99.90;;;;;;4965660;28;20495;-70
2022/09/22 09:05:08;;;;;;;0.80;0.80;;;12.90;99.90;;;;;;4967638;28;20477;-69
2022/09/22 09:07:42;;;;;;;2.70;0.97;;;12.90;99.90;;;;;;4966739;28;20491;-69
2022/09/22 09:10:24;;;;;;;1.40;1.30;;;13.00;99.90;;;;;;4961560;28;20492;-70
2022/09/22 09:13:03;;;;;;;1.10;1.10;;;13.20;99.90;;;;;;4970889;28;20479;-69
2022/09/22 09:15:41;;;;;;;1.80;1.50;;;13.30;99.90;;;;;;4962090;28;20467;-69
2022/09/22 09:18:15;;;;;;;1.03;0.93;;;13.40;99.90;;;;;;4963784;28;20563;-70
2022/09/22 09:20:45;;;;;;;1.87;0.90;;;13.50;99.90;;;;;;4964011;28;20492;-70
2022/09/22 09:23:17;;;;;;;0.53;0.53;;;13.50;99.90;;;;;;4971044;28;20480;-71
2022/09/22 09:25:48;;;;;;;0.70;0.70;;;13.60;99.90;;;;;;4963603;28;20509;-71
2022/09/22 09:28:18;;;;;;;0.70;0.70;;;13.70;99.90;;;;;;4970577;28;20473;-70
2022/09/22 09:30:49;;;;;;;2.73;0.90;;;13.80;99.90;;;;;;4956496;28;20503;-71
2022/09/22 09:33:27;;;;;;;2.20;0.90;;;13.80;99.90;;;;;;4965222;28;20471;-70
2022/09/22 09:35:54;;;;;;;0.50;0.50;;;13.90;99.90;;;;;;4963062;28;20474;-71
2022/09/22 09:38:27;;;;;;;0.50;0.50;;;13.90;99.90;;;;;;4959988;28;20591;-71
2022/09/22 09:41:00;;;;;;;1.07;0.60;;;14.00;99.90;;;;;;4957523;28;20491;-70
2022/09/22 09:43:29;;;;;;;3.10;0.60;;;14.20;99.90;;;;;;4962995;28;20466;-70
2022/09/22 09:46:06;;;;;;;0.70;0.70;;;14.30;99.90;;;;;;4959576;28;20579;-70
2022/09/22 09:48:39;;;;;;;0.43;0.43;;;14.40;99.90;;;;;;4963583;28;20485;-70
2022/09/22 09:51:10;;;;;;;1.77;0.47;;;14.50;99.90;;;;;;4965093;28;20498;-70
2022/09/22 09:53:42;;;;;;;0.70;0.70;;;14.60;99.90;;;;;;4962075;28;20542;-71
2022/09/22 09:56:22;;;;;;;2.87;0.43;;;14.60;99.90;;;;;;4961685;28;20474;-70
2022/09/22 10:01:42;;;;;;;0.30;0.30;;;14.70;99.90;;;;;;4964162;28;20492;-71
2022/09/22 10:04:18;;;;;;;0.33;0.33;;;14.70;99.90;;;;;;4959695;28;20472;-70
2022/09/22 10:06:46;;;;;;;0.73;0.50;;;14.70;99.90;;;;;;4960885;28;20468;-68
2022/09/22 10:09:23;;;;;;;0.30;0.30;;;14.80;99.90;;;;;;4967237;28;20491;-70
2022/09/22 10:11:59;;;;;;;0.60;0.60;;;14.80;99.90;;;;;;4957525;28;20503;-70
2022/09/22 10:14:29;;;;;;;0.30;0.30;;;14.90;99.90;;;;;;4957235;28;20475;-70
2022/09/22 10:16:56;;;;;;;0.40;0.40;;;15.00;99.90;;;;;;4963203;28;20478;-70
2022/09/22 10:19:28;;;;;;;3.13;0.57;;;15.00;99.90;;;;;;4963637;28;20866;-69
2022/09/22 10:22:17;;;;;;;0.80;0.80;;;15.10;99.90;;;;;;4967994;28;20518;-70
2022/09/22 10:24:54;;;;;;;1.13;0.60;;;15.20;99.90;;;;;;4967387;28;22342;-68
2022/09/22 10:27:23;;;;;;;0.43;0.43;;;15.20;99.90;;;;;;4966042;28;20483;-70
2022/09/22 10:30:22;;;;;;;0.70;0.70;;;15.40;99.90;;;;;;4964336;28;20573;-68
2022/09/22 10:33:15;;;;;;;1.37;0.50;;;15.50;99.90;;;;;;4964070;28;20472;-69
2022/09/22 10:35:44;;;;;;;2.53;0.60;;;15.60;99.90;;;;;;4965354;28;20476;-71
2022/09/22 10:38:22;;;;;;;0.50;0.50;;;15.70;99.90;;;;;;4962113;28;20466;-70
2022/09/22 10:40:56;;;;;;;0.53;0.53;;;15.80;99.90;;;;;;4962376;28;20486;-70
2022/09/22 10:43:35;;;;;;;3.50;0.90;;;15.80;99.90;;;;;;4965699;28;20473;-71
2022/09/22 10:46:22;;;;;;;0.70;0.70;;;15.80;99.90;;;;;;4966230;28;20597;-71
2022/09/22 10:48:54;;;;;;;0.57;0.57;;;15.90;99.90;;;;;;4957355;28;20526;-70
2022/09/22 10:51:33;;;;;;;0.40;0.40;;;15.90;99.90;;;;;;4967140;28;20491;-70
2022/09/22 10:54:25;;;;;;;0.63;0.63;;;16.00;99.90;;;;;;4966901;28;20815;-70
2022/09/22 10:56:55;;;;;;;0.60;0.60;;;15.90;99.90;;;;;;4966355;28;20556;-69
2022/09/22 10:59:38;;;;;;;0.77;0.77;;;15.90;99.90;;;;;;4964630;28;20480;-70
2022/09/22 11:02:33;;;;;;;0.50;0.50;;;15.90;99.90;;;;;;4968020;28;20510;-69
2022/09/22 11:12:14;;;;;;;0.50;0.50;;;16.00;99.90;;;;;;4959828;28;20847;-70
2022/09/22 11:13:56;;;;;;;0.30;0.30;;;16.20;99.90;;;;;;4966687;28;20459;-70
2022/09/22 11:17:02;;;;;;;0.60;0.60;;;16.40;99.90;;;;;;4965499;28;20467;-70
2022/09/22 11:19:46;;;;;;;0.40;0.40;;;16.50;99.90;;;;;;4950253;28;20470;-70
2022/09/22 11:22:38;;;;;;;1.57;0.80;;;16.40;99.90;;;;;;4966351;28;20487;-70
2022/09/22 11:25:21;;;;;;;1.30;0.80;;;16.40;99.90;;;;;;4967737;28;20487;-71
2022/09/22 11:28:02;;;;;;;0.63;0.60;;;16.50;99.90;;;;;;4963381;28;20977;-70
2022/09/22 11:30:34;;;;;;;0.40;0.40;;;16.80;99.90;;;;;;4960353;28;20573;-71
2022/09/22 11:33:25;;;;;;;0.50;0.50;;;16.90;99.90;;;;;;4965883;28;20493;-70
2022/09/22 11:36:04;;;;;;;1.77;0.80;;;17.10;99.90;;;;;;4964142;28;20533;-68
2022/09/22 11:38:54;;;;;;;0.40;0.40;;;17.10;99.90;;;;;;4961995;28;20481;-70
2022/09/22 11:41:29;;;;;;;0.43;0.43;;;17.20;99.90;;;;;;4959481;28;20488;-70
2022/09/22 11:44:22;;;;;;;0.43;0.43;;;17.30;99.90;;;;;;4960422;28;20468;-70
2022/09/22 11:47:00;;;;;;;0.70;0.70;;;17.40;99.90;;;;;;4970111;28;20471;-70
2022/09/22 11:49:39;;;;;;;0.50;0.50;;;17.30;99.90;;;;;;4969226;28;20476;-70
2022/09/22 11:52:20;;;;;;;0.70;0.70;;;17.20;99.90;;;;;;4970165;28;20513;-69
2022/09/22 11:55:12;;;;;;;0.30;0.30;;;17.30;99.90;;;;;;4964501;28;20481;-70
2022/09/22 11:57:44;;;;;;;0.30;0.30;;;17.30;99.90;;;;;;4969080;28;20479;-70
2022/09/22 12:00:16;;;;;;;0.50;0.50;;;17.20;99.90;;;;;;4966917;28;21134;-69
2022/09/22 12:02:48;;;;;;;0.70;0.70;;;17.40;99.90;;;;;;4966863;28;20548;-69
2022/09/22 12:05:20;;;;;;;0.40;0.40;;;17.50;99.90;;;;;;4965271;28;20484;-70
2022/09/22 12:07:55;;;;;;;0.30;0.30;;;17.60;99.90;;;;;;4964478;28;20475;-69
2022/09/22 12:10:30;;;;;;;0.50;0.50;;;17.70;99.90;;;;;;4964721;28;20483;-70
2022/09/22 12:12:57;;;;;;;0.67;0.67;;;17.60;99.90;;;;;;4969359;28;21153;-70
2022/09/22 12:15:29;;;;;;;0.60;0.60;;;17.50;99.90;;;;;;4967468;28;20473;-70
2022/09/22 12:18:08;;;;;;;0.97;0.33;;;17.40;99.90;;;;;;4964954;28;20466;-69
2022/09/22 12:20:47;;;;;;;0.67;0.67;;;17.40;99.90;;;;;;4970146;28;20560;-68
2022/09/22 12:23:27;;;;;;;0.63;0.63;;;17.60;99.90;;;;;;4969272;28;20854;-70
2022/09/22 12:25:55;;;;;;;1.27;1.17;;;17.60;99.90;;;;;;4964804;28;20483;-68
2022/09/22 12:28:25;;;;;;;0.50;0.50;;;17.60;99.90;;;;;;4968827;28;20473;-70
2022/09/22 12:31:02;;;;;;;0.40;0.40;;;17.60;99.90;;;;;;4963723;28;20560;-69
2022/09/22 12:33:29;;;;;;;0.40;0.40;;;17.60;99.90;;;;;;4969011;28;20474;-69
2022/09/22 12:35:59;;;;;;;0.93;0.77;;;17.70;99.90;;;;;;4966612;28;20465;-70
2022/09/22 12:38:27;;;;;;;0.50;0.50;;;17.80;99.90;;;;;;4963920;28;20480;-70
2022/09/22 12:40:57;;;;;;;2.00;0.60;;;18.00;99.90;;;;;;4968577;28;21066;-68
2022/09/22 12:43:24;;;;;;;5.10;0.80;;;18.20;99.90;;;;;;4968603;28;20493;-70
2022/09/22 12:45:53;;;;;;;0.40;0.40;;;18.30;99.90;;;;;;4964827;28;20475;-70
2022/09/22 12:48:24;;;;;;;0.70;0.60;;;18.30;99.90;;;;;;4955792;28;20458;-70
2022/09/22 12:50:52;;;;;;;2.73;1.50;;;18.30;99.90;;;;;;4970087;28;20231;-70
2022/09/22 12:53:28;;;;;;;0.70;0.70;;;18.20;99.90;;;;;;4963041;28;20468;-70
2022/09/22 12:55:56;;;;;;;0.73;0.73;;;18.00;99.90;;;;;;4966315;28;20481;-70
2022/09/22 12:58:42;;;;;;;0.80;0.80;;;18.00;99.90;;;;;;4972108;28;20975;-70
2022/09/22 13:01:33;;;;;;;0.63;0.63;;;17.80;99.90;;;;;;4970684;28;20505;-72
2022/09/22 13:04:11;;;;;;;4.20;0.50;;;17.80;99.90;;;;;;4957618;28;20468;-72
2022/09/22 13:06:56;;;;;;;0.30;0.30;;;17.90;99.90;;;;;;4959769;28;20479;-71
2022/09/22 13:09:28;;;;;;;0.63;0.63;;;18.00;99.90;;;;;;4969870;28;20470;-71
2022/09/22 13:12:26;;;;;;;0.63;0.63;;;18.00;99.90;;;;;;4969407;28;20505;-71
2022/09/22 13:15:19;;;;;;;1.63;0.70;;;18.20;99.90;;;;;;4962844;28;20823;-68
2022/09/22 13:17:48;;;;;;;0.67;0.50;;;18.10;99.90;;;;;;4955571;28;20467;-71
2022/09/22 13:20:20;;;;;;;0.40;0.40;;;18.10;99.90;;;;;;4954808;28;20859;-71
2022/09/22 13:22:49;;;;;;;0.80;0.80;;;18.00;99.90;;;;;;4965798;28;20477;-71
2022/09/22 13:25:24;;;;;;;0.60;0.60;;;17.80;99.90;;;;;;4961666;28;20476;-71
2022/09/22 13:28:04;;;;;;;0.50;0.50;;;17.70;99.90;;;;;;4971476;28;20560;-70
2022/09/22 13:30:31;;;;;;;1.27;1.17;;;17.70;99.90;;;;;;4969875;28;21053;-71
2022/09/22 13:32:58;;;;;;;0.47;0.47;;;17.70;99.90;;;;;;4963428;28;20861;-71
2022/09/22 13:35:26;;;;;;;0.60;0.60;;;17.80;99.90;;;;;;4968416;28;21127;-69
2022/09/22 13:37:56;;;;;;;0.43;0.43;;;17.80;99.90;;;;;;4953941;28;20471;-70
2022/09/22 13:40:28;;;;;;;0.70;0.70;;;17.80;99.90;;;;;;4962445;28;20460;-71
2022/09/22 13:42:58;;;;;;;0.53;0.53;;;17.80;99.90;;;;;;4963199;28;20467;-71
2022/09/22 13:45:26;;;;;;;1.70;0.80;;;17.80;99.90;;;;;;4970287;28;20480;-70
2022/09/22 13:47:57;;;;;;;0.57;0.57;;;17.80;99.90;;;;;;4962406;28;20559;-70
2022/09/22 13:50:25;;;;;;;0.77;0.77;;;17.80;99.90;;;;;;4963175;28;20484;-71
2022/09/22 13:52:52;;;;;;;0.70;0.70;;;17.80;99.90;;;;;;4959754;28;20467;-71
2022/09/22 13:55:23;;;;;;;0.50;0.50;;;17.80;99.90;;;;;;4953232;28;20483;-69
2022/09/22 13:57:53;;;;;;;0.60;0.60;;;17.80;99.90;;;;;;4963309;28;20474;-69
2022/09/22 14:00:24;;;;;;;0.60;0.60;;;17.80;99.90;;;;;;4969518;28;20478;-69
2022/09/22 14:02:52;;;;;;;3.27;0.63;;;17.90;99.90;;;;;;4963350;28;20467;-69
2022/09/22 14:05:24;;;;;;;0.50;0.50;;;17.80;99.90;;;;;;4968487;28;20477;-70
2022/09/22 14:07:52;;;;;;;2.10;0.57;;;17.80;99.90;;;;;;4956631;28;20482;-70
2022/09/22 14:10:20;;;;;;;0.40;0.40;;;17.80;99.90;;;;;;4966030;28;20503;-70
2022/09/22 14:12:48;;;;;;;0.50;0.50;;;17.80;99.90;;;;;;4955780;28;20509;-70
2022/09/22 14:18:17;;;;;;;0.97;0.97;;;17.80;99.90;;;;;;5082762;27;20549;-70
2022/09/22 14:20:44;;;;;;;0.70;0.70;;;18.00;99.90;;;;;;5084466;28;21040;-70
2022/09/22 14:23:19;;;;;;;3.33;1.00;;;18.20;99.90;;;;;;5066152;28;20466;-70
2022/09/22 14:25:46;;;;;;;2.00;1.00;;;18.20;99.90;;;;;;5058776;28;20456;-70
2022/09/22 14:28:20;;;;;;;1.50;0.67;;;18.20;99.90;;;;;;5062719;28;20476;-71
2022/09/22 14:30:46;;;;;;;0.60;0.60;;;18.20;99.90;;;;;;5064644;28;20531;-67
2022/09/22 14:33:21;;;;;;;1.17;1.00;;;18.10;99.90;;;;;;5063250;28;20466;-68
2022/09/22 14:35:50;;;;;;;0.70;0.70;;;18.10;99.90;;;;;;5065830;28;20482;-70
2022/09/22 14:38:20;;;;;;;0.70;0.70;;;18.10;99.90;;;;;;5059676;28;20466;-69
2022/09/22 14:40:54;;;;;;;0.50;0.50;;;18.00;99.90;;;;;;5064976;28;20573;-68
2022/09/22 14:43:24;;;;;;;1.00;1.00;;;17.80;99.90;;;;;;5061828;28;20480;-68
2022/09/22 14:45:58;;;;;;;1.23;1.00;;;17.70;99.90;;;;;;5065572;28;20459;-68
2022/09/22 14:48:32;;;;;;;0.50;0.50;;;17.60;99.90;;;;;;5064681;28;20455;-68
2022/09/22 14:51:01;;;;;;;0.93;0.40;;;17.60;99.90;;;;;;5065322;28;20540;-69
2022/09/22 14:53:32;;;;;;;0.30;0.30;;;17.50;99.90;;;;;;5062074;28;20467;-68
2022/09/22 14:56:04;;;;;;;0.90;0.90;;;17.40;99.90;;;;;;5061410;28;20461;-68
2022/09/22 14:58:36;;;;;;;0.60;0.60;;;17.30;99.90;;;;;;5063236;28;20484;-68
2022/09/22 15:03:59;;;;;;;0.30;0.30;;;17.10;99.90;;;;;;5062686;28;20558;-69
2022/09/22 15:06:31;;;;;;;0.37;0.37;;;17.00;99.90;;;;;;5063452;28;20958;-68
2022/09/22 15:09:03;;;;;;;0.40;0.40;;;16.90;99.90;;;;;;5061018;28;20898;-67
2022/09/22 15:11:47;;;;;;;0.50;0.30;;;16.80;99.90;;;;;;5064257;28;20483;-67
2022/09/22 15:14:41;;;;;;;0.30;0.30;;;16.80;99.90;;;;;;5060776;28;20461;-70
2022/09/22 15:20:23;;;;;;;0.40;0.40;;;16.70;99.90;;;;;;5061060;28;20514;-70
2022/09/22 15:22:52;;;;;;;1.33;0.43;;;16.70;99.90;;;;;;5061730;28;20495;-68
2022/09/22 15:25:20;;;;;;;0.50;0.50;;;16.70;99.90;;;;;;5063725;28;20504;-69
2022/09/22 15:27:50;;;;;;;0.30;0.30;;;16.70;99.90;;;;;;5058317;28;20496;-69
2022/09/22 15:30:17;;;;;;;0.40;0.40;;;16.70;99.90;;;;;;5049840;28;20470;-69
2022/09/22 15:32:46;;;;;;;0.57;0.57;;;16.70;99.90;;;;;;5050136;28;20484;-69
2022/09/22 15:35:13;;;;;;;0.40;0.40;;;16.60;99.90;;;;;;5050519;28;20463;-68
2022/09/22 15:37:42;;;;;;;0.33;0.33;;;16.60;99.90;;;;;;5041947;28;20953;-70
2022/09/22 15:40:18;;;;;;;0.30;0.30;;;16.50;99.90;;;;;;5050139;28;20461;-69
2022/09/22 15:42:45;;;;;;;0.30;0.30;;;16.50;99.90;;;;;;5040646;28;20475;-69
2022/09/22 15:45:13;;;;;;;0.57;0.57;;;16.40;99.90;;;;;;5050772;28;20485;-71
2022/09/22 15:47:43;;;;;;;0.30;0.30;;;16.40;99.90;;;;;;5048361;28;20464;-70
2022/09/22 15:50:16;;;;;;;0.33;0.33;;;16.30;99.90;;;;;;5050836;28;20487;-69
2022/09/22 15:52:45;;;;;;;0.40;0.40;;;16.30;99.90;;;;;;5046024;28;20993;-72
2022/09/22 15:55:16;;;;;;;0.43;0.43;;;16.30;99.90;;;;;;5048443;28;20485;-69
2022/09/22 15:57:45;;;;;;;0.30;0.30;;;16.30;99.90;;;;;;5050160;28;20485;-69
2022/09/22 16:00:14;;;;;;;0.30;0.30;;;16.30;99.90;;;;;;5049670;28;20560;-69
2022/09/22 16:02:42;;;;;;;0.30;0.30;;;16.30;99.90;;;;;;5046411;28;20487;-69
2022/09/22 16:05:11;;;;;;;0.27;0.27;;;16.30;99.90;;;;;;5048225;28;20632;-69
2022/09/22 16:07:39;;;;;;;0.33;0.33;;;16.30;99.90;;;;;;5047190;28;20478;-69
2022/09/22 16:10:12;;;;;;;0.30;0.30;;;16.40;99.90;;;;;;5050103;28;20496;-70
2022/09/22 16:12:40;;;;;;;0.33;0.33;;;16.30;99.90;;;;;;5049267;28;20489;-70
2022/09/22 16:15:08;;;;;;;0.70;0.70;;;16.30;99.90;;;;;;5048467;28;20471;-69
2022/09/22 16:17:38;;;;;;;0.50;0.50;;;16.20;99.90;;;;;;5045992;28;20497;-69
2022/09/22 16:20:05;;;;;;;0.63;0.63;;;16.20;99.90;;;;;;5044597;28;21011;-69
2022/09/22 16:22:32;;;;;;;0.23;0.23;;;16.10;99.90;;;;;;5048377;28;20630;-68
2022/09/22 16:24:59;;;;;;;1.07;0.90;;;16.10;99.90;;;;;;5050651;28;20464;-69
2022/09/22 16:27:28;;;;;;;0.53;0.53;;;16.10;99.90;;;;;;5047734;28;20458;-69
2022/09/22 16:29:54;;;;;;;0.40;0.40;;;16.00;99.90;;;;;;5047598;28;20949;-69
2022/09/22 16:32:21;;;;;;;0.80;0.80;;;16.00;99.90;;;;;;5046790;28;20484;-68
2022/09/22 16:34:48;;;;;;;0.50;0.50;;;16.00;99.90;;;;;;5047144;28;20473;-69
2022/09/22 16:37:15;;;;;;;0.40;0.40;;;15.90;99.90;;;;;;5050082;28;20489;-69
2022/09/22 16:39:42;;;;;;;0.40;0.40;;;15.90;99.90;;;;;;5041713;28;20462;-69
2022/09/22 16:42:08;;;;;;;4.20;0.90;;;15.80;99.90;;;;;;5046315;28;20559;-70
2022/09/22 16:44:36;;;;;;;0.87;0.87;;;15.80;99.90;;;;;;5047887;28;20705;-69
2022/09/22 16:47:03;;;;;;;0.50;0.50;;;15.80;99.90;;;;;;5049167;28;20485;-70
2022/09/22 16:49:32;;;;;;;0.53;0.53;;;15.80;99.90;;;;;;5045197;28;20480;-70
2022/09/22 16:51:59;;;;;;;0.43;0.43;;;15.70;99.90;;;;;;5049088;28;20491;-70
2022/09/22 16:54:26;;;;;;;0.60;0.60;;;15.70;99.90;;;;;;5041749;28;20831;-70
2022/09/22 16:56:53;;;;;;;0.60;0.60;;;15.70;99.90;;;;;;5046193;28;20520;-70
2022/09/22 16:59:21;;;;;;;0.50;0.50;;;15.70;99.90;;;;;;5050812;28;20468;-69
2022/09/22 17:01:50;;;;;;;0.73;0.73;;;15.60;99.90;;;;;;5046343;28;20504;-69
2022/09/22 17:04:18;;;;;;;0.87;0.87;;;15.60;99.90;;;;;;5049349;28;20463;-69
2022/09/22 17:06:46;;;;;;;1.90;0.73;;;15.50;99.90;;;;;;5034085;28;20557;-68
2022/09/22 17:09:13;;;;;;;0.70;0.70;;;15.50;99.90;;;;;;5050368;28;20964;-68
2022/09/22 17:11:42;;;;;;;1.20;1.20;;;15.50;99.90;;;;;;5048891;28;20488;-68
2022/09/22 17:14:12;;;;;;;1.27;1.27;;;15.40;99.90;;;;;;5037293;28;21240;-68
2022/09/22 17:16:40;;;;;;;0.80;0.80;;;15.40;99.90;;;;;;5038399;28;20480;-70
2022/09/22 17:19:10;;;;;;;2.67;0.97;;;15.30;99.90;;;;;;5043243;28;20524;-68
2022/09/22 17:21:39;;;;;;;1.43;1.33;;;15.30;99.90;;;;;;5046595;28;20482;-68
2022/09/22 17:24:08;;;;;;;0.70;0.70;;;15.30;99.90;;;;;;5038335;28;20499;-68
2022/09/22 17:26:37;;;;;;;1.17;1.17;;;15.20;99.90;;;;;;5044930;28;20481;-68
2022/09/22 17:29:04;;;;;;;1.30;1.30;;;15.10;99.90;;;;;;5049234;28;20475;-68
2022/09/22 17:31:31;;;;;;;0.90;0.90;;;15.00;99.90;;;;;;5043805;28;20529;-68
2022/09/22 17:33:58;;;;;;;1.40;1.40;;;15.00;99.90;;;;;;5039486;28;20463;-68
2022/09/22 17:36:27;;;;;;;1.87;1.77;;;14.80;99.90;;;;;;5045821;28;20475;-70